createdAt,value
2022-08-02T00:03:36.588Z,21.17
2022-08-02T00:08:58.652Z,21.19
2022-08-02T00:14:20.574Z,21.30
2022-08-02T00:19:42.638Z,21.35
2022-08-02T00:25:05.345Z,21.26
2022-08-02T00:30:27.253Z,21.30
2022-08-02T00:35:49.135Z,21.38
2022-08-02T00:41:12.994Z,21.35
2022-08-02T00:46:34.814Z,21.30
2022-08-02T00:51:56.669Z,21.32
2022-08-02T00:57:18.590Z,21.26
2022-08-02T01:02:40.800Z,21.07
2022-08-02T01:08:03.733Z,20.83
2022-08-02T01:13:26.392Z,20.95
2022-08-02T01:18:54.162Z,20.93
2022-08-02T01:24:48.161Z,20.79
2022-08-02T01:30:11.206Z,20.81
2022-08-02T01:35:50.780Z,20.89
2022-08-02T01:41:19.812Z,20.82
2022-08-02T01:46:43.268Z,20.74
2022-08-02T01:52:09.416Z,20.54
2022-08-02T01:57:39.194Z,20.45
2022-08-02T02:03:05.917Z,20.44
2022-08-02T02:08:36.293Z,20.26
2022-08-02T02:14:00.729Z,20.39
2022-08-02T02:19:24.003Z,20.50
2022-08-02T02:24:45.822Z,20.53
2022-08-02T02:30:09.537Z,20.50
2022-08-02T02:35:34.765Z,20.40
2022-08-02T02:41:00.752Z,20.44
2022-08-02T02:46:23.548Z,20.41
2022-08-02T02:51:46.255Z,20.45
2022-08-02T02:57:09.600Z,20.43
2022-08-02T03:02:34.483Z,20.32
2022-08-02T03:07:56.337Z,19.95
2022-08-02T03:13:18.732Z,19.91
2022-08-02T03:18:42.951Z,19.81
2022-08-02T03:24:05.510Z,19.89
2022-08-02T03:29:30.346Z,20.78
2022-08-02T03:34:54.566Z,21.09
2022-08-02T03:40:17.874Z,20.80
2022-08-02T03:45:43.305Z,21.41
2022-08-02T03:51:05.737Z,22.23
2022-08-02T03:56:29.092Z,23.20
2022-08-02T04:01:50.916Z,25.19
2022-08-02T04:07:12.748Z,27.49
2022-08-02T04:12:34.585Z,28.31
2022-08-02T04:17:59.804Z,29.69
2022-08-02T04:23:24.188Z,29.99
2022-08-02T04:28:48.802Z,29.16
2022-08-02T04:34:14.807Z,26.73
2022-08-02T04:39:37.565Z,26.83
2022-08-02T04:44:59.433Z,26.96
2022-08-02T04:50:21.290Z,28.17
2022-08-02T04:55:43.198Z,29.49
2022-08-02T05:01:05.071Z,32.76
2022-08-02T05:06:27.300Z,32.48
2022-08-02T05:11:55.112Z,31.82
2022-08-02T05:17:17.110Z,35.52
2022-08-02T05:22:39.552Z,37.08
2022-08-02T05:28:01.399Z,37.92
2022-08-02T05:33:23.197Z,37.89
2022-08-02T05:38:49.746Z,39.86
2022-08-02T05:44:12.023Z,39.73
2022-08-02T05:49:33.979Z,41.90
2022-08-02T05:55:04.652Z,40.04
2022-08-02T06:00:30.526Z,39.67
2022-08-02T06:06:09.768Z,42.73
2022-08-02T06:11:38.239Z,42.08
2022-08-02T06:17:04.586Z,39.91
2022-08-02T06:22:35.999Z,39.94
2022-08-02T06:28:04.936Z,40.09
2022-08-02T06:33:33.561Z,39.31
2022-08-02T06:38:58.122Z,39.82
2022-08-02T06:44:45.622Z,39.55
2022-08-02T06:50:02.062Z,38.29
2022-08-02T06:55:24.084Z,38.70
2022-08-02T07:00:45.952Z,39.05
2022-08-02T07:06:08.474Z,36.90
2022-08-02T07:11:30.286Z,37.60
2022-08-02T07:16:52.111Z,36.03
2022-08-02T07:22:13.994Z,37.37
2022-08-02T07:27:36.215Z,38.50
2022-08-02T07:32:58.863Z,39.76
2022-08-02T07:38:20.698Z,39.15
2022-08-02T07:43:42.754Z,38.91
2022-08-02T07:49:04.686Z,38.68
2022-08-02T07:54:26.585Z,34.23
2022-08-02T07:59:48.419Z,36.65
2022-08-02T08:05:11.353Z,38.66
2022-08-02T08:10:34.002Z,37.55
2022-08-02T08:15:55.842Z,39.38
2022-08-02T08:21:17.897Z,39.26
2022-08-02T08:26:40.042Z,38.74
2022-08-02T08:32:02.315Z,39.99
2022-08-02T08:37:24.194Z,38.67
2022-08-02T08:42:46.217Z,40.06
2022-08-02T08:48:11.251Z,39.63
2022-08-02T08:53:40.345Z,38.36
2022-08-02T08:59:04.547Z,38.88
2022-08-02T09:04:26.347Z,37.87
2022-08-02T09:09:48.360Z,37.99
2022-08-02T09:15:15.850Z,37.81
2022-08-02T09:21:04.517Z,35.02
2022-08-02T09:26:28.705Z,34.95
2022-08-02T09:31:51.566Z,33.41
2022-08-02T09:37:30.525Z,33.42
2022-08-02T09:43:01.429Z,34.17
2022-08-02T09:48:23.244Z,33.71
2022-08-02T09:53:45.163Z,33.09
2022-08-02T09:59:07.751Z,33.69
2022-08-02T10:04:31.434Z,33.78
2022-08-02T10:09:53.492Z,32.79
2022-08-02T10:15:17.484Z,31.57
2022-08-02T10:20:44.712Z,30.68
2022-08-02T10:26:07.896Z,30.32
2022-08-02T10:31:43.600Z,29.55
2022-08-02T10:37:06.794Z,29.75
2022-08-02T10:42:43.544Z,30.55
2022-08-02T10:48:11.134Z,30.46
2022-08-02T10:53:34.131Z,30.70
2022-08-02T10:59:32.277Z,29.68
2022-08-02T11:04:54.033Z,31.02
2022-08-02T11:10:36.847Z,29.71
2022-08-02T11:16:04.421Z,30.54
2022-08-02T11:21:30.554Z,30.20
2022-08-02T11:26:52.880Z,30.42
2022-08-02T11:32:30.659Z,30.76
2022-08-02T11:37:53.310Z,30.29
2022-08-02T11:43:23.736Z,29.63
2022-08-02T11:48:45.581Z,30.04
2022-08-02T11:54:07.416Z,29.94
2022-08-02T11:59:29.246Z,29.93
2022-08-02T12:04:57.322Z,30.34
2022-08-02T12:10:23.164Z,30.35
2022-08-02T12:15:46.579Z,29.72
2022-08-02T12:21:26.377Z,29.71
2022-08-02T12:26:48.240Z,29.14
2022-08-02T12:32:24.561Z,29.33
2022-08-02T12:37:50.817Z,28.81
2022-08-02T12:43:24.638Z,29.46
2022-08-02T12:49:08.346Z,29.48
2022-08-02T12:54:32.226Z,29.20
2022-08-02T12:59:54.165Z,29.24
2022-08-02T13:05:16.095Z,28.97
2022-08-02T13:10:38.215Z,29.28
2022-08-02T13:16:00.483Z,29.54
2022-08-02T13:21:41.174Z,29.04
2022-08-02T13:27:07.851Z,28.68
2022-08-02T13:32:29.762Z,28.26
2022-08-02T13:37:51.663Z,29.21
2022-08-02T13:43:13.495Z,29.93
2022-08-02T13:48:35.330Z,29.12
2022-08-02T13:53:57.262Z,29.34
2022-08-02T13:59:54.808Z,29.37
2022-08-02T14:05:00.876Z,29.18
2022-08-02T14:10:22.813Z,28.85
2022-08-02T14:15:45.088Z,28.77
2022-08-02T14:21:06.937Z,28.62
2022-08-02T14:26:28.839Z,28.54
2022-08-02T14:31:50.646Z,28.35
2022-08-02T14:37:12.477Z,28.20
2022-08-02T14:42:36.315Z,28.01
2022-08-02T14:47:58.217Z,28.20
2022-08-02T14:53:20.111Z,28.22
2022-08-02T14:58:41.967Z,28.57
2022-08-02T15:04:03.955Z,28.79
2022-08-02T15:09:25.800Z,28.48
2022-08-02T15:14:48.008Z,29.04
2022-08-02T15:20:25.225Z,29.18
2022-08-02T15:25:47.957Z,28.65
2022-08-02T15:31:09.868Z,27.96
2022-08-02T15:36:31.717Z,28.22
2022-08-02T15:41:53.547Z,28.48
2022-08-02T15:47:15.815Z,28.02
2022-08-02T15:52:37.826Z,27.81
2022-08-02T15:57:59.631Z,27.74
2022-08-02T16:03:22.128Z,27.71
2022-08-02T16:08:53.532Z,27.74
2022-08-02T16:14:16.797Z,27.68
2022-08-02T16:19:48.805Z,27.81
2022-08-02T16:25:17.081Z,27.75
2022-08-02T16:30:39.441Z,27.35
2022-08-02T16:36:01.292Z,27.40
2022-08-02T16:41:23.235Z,27.36
2022-08-02T16:47:05.136Z,27.36
2022-08-02T16:52:27.625Z,27.26
2022-08-02T16:57:50.298Z,27.23
2022-08-02T17:03:13.587Z,27.08
2022-08-02T17:08:55.278Z,26.78
2022-08-02T17:14:17.106Z,26.85
2022-08-02T17:19:39.224Z,26.82
2022-08-02T17:25:01.135Z,26.52
2022-08-02T17:30:26.643Z,26.56
2022-08-02T17:35:52.896Z,26.57
2022-08-02T17:41:15.173Z,26.49
2022-08-02T17:46:37.408Z,26.33
2022-08-02T17:52:49.023Z,26.26
2022-08-02T17:57:58.321Z,26.21
2022-08-02T18:03:20.961Z,26.00
2022-08-02T18:08:44.774Z,25.85
2022-08-02T18:14:13.402Z,25.73
2022-08-02T18:19:53.959Z,25.59
2022-08-02T18:25:36.580Z,25.37
2022-08-02T18:31:00.586Z,25.27
2022-08-02T18:36:29.407Z,25.09
2022-08-02T18:41:51.904Z,25.02
2022-08-02T18:47:14.053Z,24.86
2022-08-02T18:52:36.412Z,24.77
2022-08-02T18:58:17.986Z,24.63
2022-08-02T19:03:40.089Z,24.44
2022-08-02T19:09:11.153Z,24.39
2022-08-02T19:14:35.528Z,24.30
2022-08-02T19:19:57.406Z,24.22
2022-08-02T19:25:19.359Z,24.12
2022-08-02T19:30:41.195Z,23.85
2022-08-02T19:36:06.064Z,23.71
2022-08-02T19:41:27.946Z,23.80
2022-08-02T19:47:06.016Z,23.79
2022-08-02T19:52:34.294Z,23.66
2022-08-02T19:57:56.534Z,23.61
2022-08-02T20:03:19.653Z,23.49
2022-08-02T20:09:01.781Z,23.39
2022-08-02T20:14:27.563Z,23.19
2022-08-02T20:19:49.773Z,23.07
2022-08-02T20:25:15.906Z,22.90
2022-08-02T20:30:38.278Z,22.98
2022-08-02T20:36:00.122Z,23.03
2022-08-02T20:41:36.716Z,22.77
2022-08-02T20:47:04.957Z,22.83
2022-08-02T20:52:28.229Z,22.71
2022-08-02T20:58:00.904Z,22.66
2022-08-02T21:03:23.476Z,22.68
2022-08-02T21:08:46.133Z,22.56
2022-08-02T21:14:09.222Z,22.23
2022-08-02T21:19:31.102Z,22.15
2022-08-02T21:24:52.938Z,21.89
2022-08-02T21:30:15.009Z,21.57
2022-08-02T21:35:36.866Z,21.63
2022-08-02T21:40:58.677Z,21.71
2022-08-02T21:46:20.493Z,21.81
2022-08-02T21:51:49.584Z,21.66
2022-08-02T21:57:15.728Z,21.67
2022-08-02T22:02:38.554Z,21.66
2022-08-02T22:08:00.440Z,21.63
2022-08-02T22:13:22.287Z,21.50
2022-08-02T22:18:51.366Z,21.43
2022-08-02T22:24:19.483Z,21.32
2022-08-02T22:29:41.510Z,21.35
2022-08-02T22:35:08.733Z,21.32
2022-08-02T22:40:30.784Z,21.26
2022-08-02T22:45:54.996Z,21.20
2022-08-02T22:51:16.893Z,21.17
2022-08-02T22:56:38.717Z,21.17
2022-08-02T23:02:06.537Z,21.05
2022-08-02T23:07:28.417Z,21.05
2022-08-02T23:12:57.987Z,20.80
2022-08-02T23:18:19.893Z,20.80
2022-08-02T23:23:44.851Z,20.63
2022-08-02T23:29:06.720Z,20.70
2022-08-02T23:34:28.604Z,20.54
2022-08-02T23:39:51.030Z,20.45
2022-08-02T23:45:12.871Z,20.35
2022-08-02T23:50:34.708Z,20.05
2022-08-02T23:55:56.775Z,20.11
